Terminal Aerodrome Forecast
Issued by NWS

Home | Current Version | Previous Version | Text Only | Print | Product List | Glossary On
Versions: 1 2 3 4 5 6 7 8 9 10 11 12
000
FTUS45 KVEF 041720
TAFHND
TAF
KHND 041720Z 0418/0518 16008KT P6SM SCT120
     FM042000 20012G20KT P6SM VCTS BKN120CB BKN250
      TEMPO 0420/0424 VRB15G25KT
     FM050600 20012KT P6SM VCSH BKN120=

USA.gov is the U.S. government's official web portal to all federal, state and local government web resources and services.